createdAt,value
2022-08-18T00:01:13.417Z,16.92
2022-08-18T00:03:56.172Z,15.18
2022-08-18T00:06:29.344Z,15.38
2022-08-18T00:08:59.447Z,15.38
2022-08-18T00:11:28.662Z,15.00
2022-08-18T00:14:11.577Z,14.98
2022-08-18T00:16:50.333Z,16.60
2022-08-18T00:19:20.410Z,15.00
2022-08-18T00:22:09.168Z,17.33
2022-08-18T00:24:48.609Z,15.32
2022-08-18T00:27:22.956Z,15.98
2022-08-18T00:29:52.379Z,13.85
2022-08-18T00:32:21.924Z,14.80
2022-08-18T00:34:51.861Z,14.27
2022-08-18T00:37:20.473Z,14.50
2022-08-18T00:39:49.017Z,16.00
2022-08-18T00:42:29.123Z,14.07
2022-08-18T00:45:00.230Z,16.00
2022-08-18T00:47:41.123Z,17.85
2022-08-18T00:50:14.970Z,16.83
2022-08-18T00:52:45.756Z,17.02
2022-08-18T00:55:14.623Z,16.25
2022-08-18T00:57:43.924Z,19.20
2022-08-18T01:00:14.517Z,15.43
2022-08-18T01:02:45.317Z,16.17
2022-08-18T01:05:18.165Z,15.73
2022-08-18T01:07:48.127Z,15.63
2022-08-18T01:10:17.676Z,14.95
2022-08-18T01:12:47.121Z,16.70
2022-08-18T01:15:28.873Z,16.65
2022-08-18T01:18:16.474Z,16.50
2022-08-18T01:21:07.557Z,16.48
2022-08-18T01:23:37.811Z,16.98
2022-08-18T01:26:05.452Z,17.42
2022-08-18T01:28:36.241Z,16.48
2022-08-18T01:31:06.347Z,17.65
2022-08-18T01:33:36.632Z,16.55
2022-08-18T01:36:08.629Z,16.52
2022-08-18T01:38:40.591Z,17.70
2022-08-18T01:41:26.645Z,16.45
2022-08-18T01:43:58.705Z,17.77
2022-08-18T01:46:28.045Z,17.25
2022-08-18T01:48:58.633Z,16.58
2022-08-18T01:51:36.373Z,15.43
2022-08-18T01:54:11.233Z,16.55
2022-08-18T01:56:40.843Z,16.65
2022-08-18T01:59:15.231Z,15.70
2022-08-18T02:01:48.375Z,15.73
2022-08-18T02:04:37.100Z,15.25
2022-08-18T02:07:07.126Z,15.82
2022-08-18T02:09:37.926Z,16.08
2022-08-18T02:12:07.389Z,16.48
2022-08-18T02:14:36.765Z,15.48
2022-08-18T02:17:07.765Z,15.82
2022-08-18T02:19:36.991Z,17.05
2022-08-18T02:22:06.084Z,15.15
2022-08-18T02:24:34.625Z,15.50
2022-08-18T02:27:04.561Z,15.82
2022-08-18T02:29:33.308Z,15.15
2022-08-18T02:32:01.822Z,15.73
2022-08-18T02:34:30.440Z,15.38
2022-08-18T02:37:00.775Z,15.93
2022-08-18T02:39:29.812Z,14.98
2022-08-18T02:41:58.685Z,14.80
2022-08-18T02:44:28.728Z,14.05
2022-08-18T02:46:57.291Z,14.30
2022-08-18T02:49:26.263Z,14.52
2022-08-18T02:51:54.835Z,14.40
2022-08-18T02:54:24.472Z,15.30
2022-08-18T02:56:53.732Z,13.80
2022-08-18T02:59:23.172Z,13.45
2022-08-18T03:01:54.398Z,14.68
2022-08-18T03:04:29.211Z,13.98
2022-08-18T03:07:00.334Z,12.93
2022-08-18T03:09:29.333Z,13.43
2022-08-18T03:11:58.338Z,13.90
2022-08-18T03:14:26.953Z,13.52
2022-08-18T03:16:57.235Z,13.15
2022-08-18T03:19:26.477Z,13.40
2022-08-18T03:21:58.038Z,12.63
2022-08-18T03:24:27.542Z,13.90
2022-08-18T03:26:56.982Z,13.63
2022-08-18T03:29:31.677Z,12.43
2022-08-18T03:32:02.815Z,12.75
2022-08-18T03:34:32.374Z,12.95
2022-08-18T03:37:01.281Z,12.93
2022-08-18T03:39:30.528Z,13.60
2022-08-18T03:42:01.666Z,12.63
2022-08-18T03:44:31.886Z,14.93
2022-08-18T03:47:03.154Z,13.55
2022-08-18T03:49:32.582Z,13.38
2022-08-18T03:52:01.472Z,14.60
2022-08-18T03:54:32.319Z,14.30
2022-08-18T03:57:01.352Z,15.70
2022-08-18T03:59:32.039Z,14.68
2022-08-18T04:02:04.514Z,14.45
2022-08-18T04:04:33.038Z,14.50
2022-08-18T04:07:05.604Z,13.90
2022-08-18T04:09:35.043Z,14.07
2022-08-18T04:12:05.865Z,14.68
2022-08-18T04:14:35.423Z,15.80
2022-08-18T04:17:05.325Z,16.95
2022-08-18T04:19:34.879Z,15.27
2022-08-18T04:22:04.770Z,16.48
2022-08-18T04:24:34.450Z,16.83
2022-08-18T04:27:06.031Z,15.30
2022-08-18T04:29:34.523Z,18.17
2022-08-18T04:32:04.968Z,16.50
2022-08-18T04:34:35.046Z,15.85
2022-08-18T04:37:03.723Z,15.27
2022-08-18T04:39:33.034Z,16.50
2022-08-18T04:42:03.689Z,16.67
2022-08-18T04:44:32.186Z,16.88
2022-08-18T04:47:02.689Z,17.50
2022-08-18T04:49:32.142Z,15.20
2022-08-18T04:52:37.117Z,18.38
2022-08-18T04:55:08.736Z,17.98
2022-08-18T04:57:37.437Z,18.70
2022-08-18T05:00:07.338Z,17.95
2022-08-18T05:02:35.967Z,18.73
2022-08-18T05:05:04.675Z,19.20
2022-08-18T05:07:34.598Z,19.17
2022-08-18T05:10:03.199Z,19.10
2022-08-18T05:12:31.693Z,19.20
2022-08-18T05:15:00.269Z,18.08
2022-08-18T05:17:30.634Z,20.20
2022-08-18T05:20:01.489Z,21.05
2022-08-18T05:22:31.339Z,18.25
2022-08-18T05:25:02.176Z,18.67
2022-08-18T05:27:35.297Z,18.80
2022-08-18T05:30:04.276Z,18.90
2022-08-18T05:32:47.935Z,17.23
2022-08-18T05:35:23.424Z,17.58
2022-08-18T05:38:08.506Z,17.45
2022-08-18T05:40:38.600Z,15.20
2022-08-18T05:43:08.430Z,17.13
2022-08-18T05:45:37.115Z,16.88
2022-08-18T05:48:05.844Z,14.30
2022-08-18T05:50:36.439Z,15.07
2022-08-18T05:53:13.602Z,15.52
2022-08-18T05:56:06.031Z,14.43
2022-08-18T05:58:37.955Z,14.73
2022-08-18T06:01:08.727Z,16.00
2022-08-18T06:03:46.350Z,15.88
2022-08-18T06:06:17.690Z,14.90
2022-08-18T06:08:48.661Z,14.07
2022-08-18T06:11:22.571Z,13.95
2022-08-18T06:13:54.321Z,13.57
2022-08-18T06:16:34.699Z,13.18
2022-08-18T06:19:05.784Z,11.80
2022-08-18T06:21:39.533Z,13.68
2022-08-18T06:24:10.849Z,12.80
2022-08-18T06:26:43.019Z,12.63
2022-08-18T06:29:23.063Z,12.82
2022-08-18T06:31:56.468Z,12.45
2022-08-18T06:34:27.936Z,12.68
2022-08-18T06:36:59.181Z,11.70
2022-08-18T06:39:30.262Z,11.25
2022-08-18T06:42:00.316Z,11.70
2022-08-18T06:44:32.551Z,12.45
2022-08-18T06:47:04.711Z,10.18
2022-08-18T06:49:39.795Z,10.77
2022-08-18T06:52:25.520Z,11.18
2022-08-18T06:54:55.391Z,11.35
2022-08-18T06:57:28.004Z,10.80
2022-08-18T06:59:57.858Z,10.93
2022-08-18T07:02:28.720Z,9.88
2022-08-18T07:05:07.063Z,10.60
2022-08-18T07:07:39.662Z,10.00
2022-08-18T07:10:30.227Z,9.75
2022-08-18T07:13:09.983Z,9.52
2022-08-18T07:15:38.501Z,10.82
2022-08-18T07:18:07.716Z,10.27
2022-08-18T07:20:43.416Z,10.02
2022-08-18T07:23:21.493Z,9.38
2022-08-18T07:25:52.323Z,9.55
2022-08-18T07:28:30.369Z,9.32
2022-08-18T07:31:16.887Z,8.68
2022-08-18T07:33:48.511Z,8.20
2022-08-18T07:36:17.632Z,8.73
2022-08-18T07:38:48.685Z,8.70
2022-08-18T07:41:20.532Z,8.85
2022-08-18T07:43:55.959Z,8.40
2022-08-18T07:46:29.570Z,8.38
2022-08-18T07:48:59.509Z,8.90
2022-08-18T07:51:35.179Z,8.77
2022-08-18T07:54:31.095Z,8.45
2022-08-18T07:57:04.175Z,8.20
2022-08-18T07:59:38.063Z,8.73
2022-08-18T08:02:18.326Z,9.45
2022-08-18T08:04:51.035Z,10.32
2022-08-18T08:07:25.133Z,10.02
2022-08-18T08:09:59.829Z,9.23
2022-08-18T08:12:37.177Z,8.80
2022-08-18T08:15:11.761Z,8.30
2022-08-18T08:17:45.016Z,9.20
2022-08-18T08:20:19.592Z,8.35
2022-08-18T08:22:55.247Z,8.73
2022-08-18T08:25:45.940Z,7.85
2022-08-18T08:28:20.512Z,9.77
2022-08-18T08:30:55.807Z,9.77
2022-08-18T08:33:26.916Z,6.78
2022-08-18T08:36:00.421Z,8.13
2022-08-18T08:38:42.795Z,10.35
2022-08-18T08:41:15.214Z,7.72
2022-08-18T08:43:46.424Z,6.90
2022-08-18T08:46:19.077Z,8.65
2022-08-18T08:48:50.414Z,10.50
2022-08-18T08:51:31.374Z,8.18
2022-08-18T08:54:05.619Z,8.73
2022-08-18T08:56:37.009Z,9.07
2022-08-18T09:11:56.766Z,20.75
2022-08-18T09:14:39.921Z,20.83
2022-08-18T09:17:18.380Z,24.38
2022-08-18T09:19:54.754Z,24.17
2022-08-18T09:22:32.319Z,27.23
2022-08-18T09:25:00.936Z,31.05
2022-08-18T09:28:00.080Z,32.42
2022-08-18T09:30:40.610Z,35.33
2022-08-18T09:33:29.593Z,35.70
2022-08-18T09:36:06.387Z,26.92
2022-08-18T09:38:58.597Z,26.60
2022-08-18T09:41:35.575Z,24.17
2022-08-18T09:44:17.841Z,19.38
2022-08-18T09:46:57.606Z,17.60
2022-08-18T09:49:56.064Z,19.40
2022-08-18T09:52:58.977Z,18.85
2022-08-18T09:55:59.238Z,18.33
2022-08-18T09:58:48.483Z,23.33
2022-08-18T10:01:36.662Z,26.40
2022-08-18T10:04:35.340Z,30.45
2022-08-18T10:07:18.730Z,28.00
2022-08-18T10:09:56.384Z,28.85
2022-08-18T10:12:36.214Z,27.90
2022-08-18T10:15:27.027Z,27.35
2022-08-18T10:18:19.020Z,23.45
2022-08-18T10:20:55.717Z,24.77
2022-08-18T10:27:00.325Z,27.33
2022-08-18T10:29:49.165Z,27.50
2022-08-18T10:32:36.120Z,28.45
2022-08-18T10:35:05.265Z,14.68
2022-08-18T10:37:38.228Z,9.23
2022-08-18T10:40:14.878Z,7.68
2022-08-18T10:42:53.437Z,7.95
2022-08-18T10:45:25.369Z,7.65
2022-08-18T10:48:00.576Z,10.60
2022-08-18T10:50:30.544Z,7.35
2022-08-18T10:53:38.557Z,6.90
2022-08-18T10:56:01.935Z,7.45
2022-08-18T10:58:45.401Z,7.35
2022-08-18T11:01:19.359Z,7.88
2022-08-18T11:04:08.828Z,8.15
2022-08-18T11:06:46.332Z,8.13
2022-08-18T11:09:24.680Z,8.57
2022-08-18T11:11:59.606Z,8.80
2022-08-18T11:14:59.673Z,16.98
2022-08-18T11:17:35.712Z,23.88
2022-08-18T11:20:10.735Z,14.93
2022-08-18T11:22:39.687Z,11.32
2022-08-18T11:25:21.229Z,9.57
2022-08-18T11:27:51.172Z,9.45
2022-08-18T11:33:15.681Z,5.70
2022-08-18T11:35:54.062Z,4.57
2022-08-18T11:41:19.500Z,4.50
2022-08-18T11:43:50.590Z,5.00
2022-08-18T11:46:29.711Z,5.32
2022-08-18T11:49:00.810Z,4.32
2022-08-18T11:51:32.655Z,3.55
2022-08-18T11:54:03.143Z,4.28
2022-08-18T11:56:37.707Z,6.47
2022-08-18T11:59:09.249Z,5.97
2022-08-18T12:01:43.391Z,4.78
2022-08-18T12:04:16.739Z,3.80
2022-08-18T12:07:01.788Z,5.10
2022-08-18T12:10:17.008Z,4.47
2022-08-18T12:12:35.811Z,5.85
2022-08-18T12:17:55.744Z,5.25
2022-08-18T12:20:24.921Z,5.40
2022-08-18T12:22:54.376Z,5.70
2022-08-18T12:25:24.682Z,6.15
2022-08-18T12:27:55.501Z,7.28
2022-08-18T12:30:24.070Z,6.10
2022-08-18T12:32:56.394Z,4.80
2022-08-18T12:35:35.148Z,3.60
2022-08-18T12:38:13.209Z,3.75
2022-08-18T12:40:43.025Z,3.75
2022-08-18T12:43:13.010Z,4.50
2022-08-18T12:45:43.089Z,6.85
2022-08-18T12:48:12.007Z,5.13
2022-08-18T12:53:38.530Z,6.00
2022-08-18T12:56:21.712Z,5.50
2022-08-18T12:58:52.038Z,6.45
2022-08-18T13:01:20.703Z,4.72
2022-08-18T13:04:11.186Z,4.78
2022-08-18T13:06:54.215Z,4.68
2022-08-18T13:09:34.107Z,4.88
2022-08-18T13:12:14.924Z,5.28
2022-08-18T13:14:50.927Z,5.10
2022-08-18T13:17:32.069Z,5.38
2022-08-18T13:20:02.008Z,5.80
2022-08-18T13:22:32.649Z,5.03
2022-08-18T13:25:04.021Z,5.07
2022-08-18T13:27:36.110Z,6.35
2022-08-18T13:30:30.328Z,5.30
2022-08-18T13:32:59.347Z,5.03
2022-08-18T13:35:30.181Z,4.82
2022-08-18T13:38:14.308Z,4.97
2022-08-18T13:40:49.492Z,5.40
2022-08-18T13:43:19.026Z,4.55
2022-08-18T13:45:53.009Z,4.72
2022-08-18T13:48:24.259Z,4.85
2022-08-18T13:50:55.676Z,5.68
2022-08-18T13:53:26.427Z,4.38
2022-08-18T13:55:58.673Z,4.95
2022-08-18T13:58:27.903Z,4.28
2022-08-18T14:01:42.374Z,4.25
2022-08-18T14:03:50.437Z,4.15
2022-08-18T14:06:22.671Z,3.58
2022-08-18T14:08:52.824Z,3.38
2022-08-18T14:11:22.394Z,3.30
2022-08-18T14:13:54.359Z,3.55
2022-08-18T14:16:26.830Z,3.13
2022-08-18T14:19:17.629Z,3.00
2022-08-18T14:22:05.580Z,2.95
2022-08-18T14:24:52.631Z,3.28
2022-08-18T14:27:21.500Z,3.30
2022-08-18T14:29:50.940Z,3.22
2022-08-18T14:32:29.494Z,3.13
2022-08-18T14:35:00.777Z,3.25
2022-08-18T14:37:41.720Z,2.80
2022-08-18T14:40:12.380Z,2.70
2022-08-18T14:42:54.964Z,2.95
2022-08-18T14:45:31.418Z,3.33
2022-08-18T14:48:07.289Z,3.10
2022-08-18T14:50:37.083Z,2.75
2022-08-18T14:53:06.652Z,2.92
2022-08-18T14:55:35.924Z,3.13
2022-08-18T14:58:07.303Z,3.05
2022-08-18T15:00:49.900Z,3.10
2022-08-18T15:03:28.394Z,2.78
2022-08-18T15:06:04.608Z,2.83
2022-08-18T15:08:36.607Z,2.58
2022-08-18T15:11:11.338Z,2.80
2022-08-18T15:13:40.573Z,2.85
2022-08-18T15:16:13.555Z,2.88
2022-08-18T15:18:43.904Z,2.40
2022-08-18T15:21:38.786Z,3.20
2022-08-18T15:24:25.348Z,3.03
2022-08-18T15:26:57.528Z,2.90
2022-08-18T15:29:31.604Z,3.00
2022-08-18T15:32:06.182Z,3.03
2022-08-18T15:34:47.182Z,2.92
2022-08-18T15:37:22.217Z,2.70
2022-08-18T15:40:00.826Z,3.03
2022-08-18T15:42:31.199Z,3.10
2022-08-18T15:45:11.655Z,2.50
2022-08-18T15:47:42.890Z,2.75
2022-08-18T15:50:22.426Z,2.80
2022-08-18T15:52:56.748Z,2.47
2022-08-18T15:55:26.047Z,3.00
2022-08-18T15:57:57.086Z,2.85
2022-08-18T16:00:27.700Z,2.45
2022-08-18T16:02:58.525Z,3.00
2022-08-18T16:05:32.119Z,2.70
2022-08-18T16:08:01.245Z,2.65
2022-08-18T16:10:32.413Z,2.50
2022-08-18T16:13:01.970Z,4.70
2022-08-18T16:15:34.054Z,4.22
2022-08-18T16:18:05.744Z,3.13
2022-08-18T16:20:36.025Z,3.00
2022-08-18T16:23:05.476Z,2.90
2022-08-18T16:25:34.009Z,2.47
2022-08-18T16:28:03.046Z,2.50
2022-08-18T16:30:32.698Z,2.70
2022-08-18T16:33:03.708Z,3.15
2022-08-18T16:35:37.361Z,2.70
2022-08-18T16:38:06.797Z,2.75
2022-08-18T16:40:35.341Z,2.85
2022-08-18T16:43:07.293Z,3.20
2022-08-18T16:45:36.184Z,2.55
2022-08-18T16:48:06.486Z,3.30
2022-08-18T16:50:37.574Z,2.70
2022-08-18T16:53:07.598Z,2.85
2022-08-18T16:55:37.718Z,2.60
2022-08-18T16:58:24.275Z,2.58
2022-08-18T17:01:24.718Z,2.58
2022-08-18T17:04:13.529Z,2.75
2022-08-18T17:06:51.090Z,2.95
2022-08-18T17:09:19.965Z,2.53
2022-08-18T17:11:52.922Z,2.90
2022-08-18T17:14:22.550Z,2.88
2022-08-18T17:16:55.101Z,2.88
2022-08-18T17:19:24.345Z,2.78
2022-08-18T17:21:54.342Z,2.78
2022-08-18T17:24:31.943Z,2.53
2022-08-18T17:27:25.594Z,2.58
2022-08-18T17:29:58.630Z,2.75
2022-08-18T17:32:28.344Z,2.75
2022-08-18T17:35:01.060Z,2.50
2022-08-18T17:37:32.019Z,2.35
2022-08-18T17:40:05.738Z,2.88
2022-08-18T17:42:35.856Z,2.30
2022-08-18T17:45:07.410Z,2.55
2022-08-18T17:47:39.971Z,3.78
2022-08-18T17:50:28.745Z,2.88
2022-08-18T17:53:06.115Z,3.00
2022-08-18T17:55:39.247Z,3.85
2022-08-18T17:58:14.483Z,4.90
2022-08-18T18:00:43.074Z,7.32
2022-08-18T18:03:13.401Z,6.60
2022-08-18T18:05:43.939Z,5.13
2022-08-18T18:08:13.878Z,4.25
2022-08-18T18:11:03.947Z,3.40
2022-08-18T18:13:34.768Z,3.03
2022-08-18T18:16:20.357Z,3.20
2022-08-18T18:19:00.878Z,3.28
2022-08-18T18:22:00.503Z,3.08
2022-08-18T18:24:34.540Z,3.17
2022-08-18T18:27:03.705Z,2.88
2022-08-18T18:29:37.381Z,2.55
2022-08-18T18:32:07.604Z,2.88
2022-08-18T18:34:39.473Z,3.03
2022-08-18T18:37:24.606Z,3.05
2022-08-18T18:39:58.467Z,2.90
2022-08-18T18:42:29.434Z,3.17
2022-08-18T18:44:59.144Z,3.22
2022-08-18T18:47:50.679Z,2.80
2022-08-18T18:50:25.857Z,2.70
2022-08-18T18:52:59.805Z,3.00
2022-08-18T18:55:31.480Z,2.60
2022-08-18T18:58:08.024Z,3.10
2022-08-18T19:00:40.643Z,3.13
2022-08-18T19:03:11.680Z,3.80
2022-08-18T19:05:43.427Z,3.55
2022-08-18T19:08:19.580Z,3.75
2022-08-18T19:10:55.560Z,3.63
2022-08-18T19:13:32.753Z,3.53
2022-08-18T19:16:09.663Z,4.30
2022-08-18T19:18:44.383Z,3.92
2022-08-18T19:22:05.827Z,3.60
2022-08-18T19:24:18.829Z,3.70
2022-08-18T19:26:52.787Z,3.03
2022-08-18T19:29:24.172Z,3.65
2022-08-18T19:31:57.480Z,4.38
2022-08-18T19:34:30.172Z,5.35
2022-08-18T19:37:03.374Z,4.60
2022-08-18T19:39:39.445Z,4.30
2022-08-18T19:42:12.407Z,3.40
2022-08-18T19:45:00.363Z,3.22
2022-08-18T19:47:36.680Z,3.00
2022-08-18T19:50:09.142Z,2.85
2022-08-18T19:52:47.041Z,3.90
2022-08-18T19:55:19.438Z,3.33
2022-08-18T19:58:01.503Z,2.83
2022-08-18T20:00:35.500Z,3.70
2022-08-18T20:03:15.689Z,3.25
2022-08-18T20:05:47.963Z,3.75
2022-08-18T20:08:34.112Z,3.10
2022-08-18T20:11:13.019Z,3.28
2022-08-18T20:13:44.682Z,3.47
2022-08-18T20:16:43.590Z,3.40
2022-08-18T20:19:46.045Z,4.18
2022-08-18T20:22:29.885Z,4.40
2022-08-18T20:25:05.818Z,4.25
2022-08-18T20:27:36.831Z,4.07
2022-08-18T20:30:20.245Z,4.90
2022-08-18T20:33:07.031Z,4.68
2022-08-18T20:35:40.856Z,4.68
2022-08-18T20:38:15.562Z,3.78
2022-08-18T20:40:45.312Z,4.05
2022-08-18T20:43:31.092Z,3.90
2022-08-18T20:46:12.417Z,3.22
2022-08-18T20:48:49.428Z,3.38
2022-08-18T20:51:22.199Z,4.10
2022-08-18T20:53:55.899Z,3.88
2022-08-18T20:56:31.359Z,3.97
2022-08-18T20:59:08.672Z,4.45
2022-08-18T21:01:39.004Z,3.60
2022-08-18T21:04:09.332Z,3.80
2022-08-18T21:06:39.625Z,3.85
2022-08-18T21:09:08.442Z,4.00
2022-08-18T21:11:40.285Z,3.70
2022-08-18T21:14:09.085Z,3.15
2022-08-18T21:16:39.608Z,3.22
2022-08-18T21:19:13.943Z,3.25
2022-08-18T21:21:46.322Z,3.28
2022-08-18T21:24:23.863Z,3.33
2022-08-18T21:26:56.350Z,3.38
2022-08-18T21:29:25.060Z,3.60
2022-08-18T21:31:54.980Z,4.00
2022-08-18T21:34:33.612Z,4.00
2022-08-18T21:37:04.263Z,3.72
2022-08-18T21:39:32.770Z,3.65
2022-08-18T21:42:01.544Z,4.15
2022-08-18T21:44:35.756Z,3.40
2022-08-18T21:47:06.586Z,3.80
2022-08-18T21:49:37.734Z,3.67
2022-08-18T21:52:06.322Z,3.53
2022-08-18T21:54:36.270Z,3.28
2022-08-18T21:57:25.186Z,3.10
2022-08-18T22:00:12.914Z,2.90
2022-08-18T22:02:41.502Z,3.20
2022-08-18T22:05:12.891Z,3.22
2022-08-18T22:07:47.920Z,3.25
2022-08-18T22:10:45.444Z,3.65
2022-08-18T22:13:36.658Z,3.40
2022-08-18T22:16:20.272Z,3.25
2022-08-18T22:18:48.759Z,3.53
2022-08-18T22:24:21.596Z,3.60
2022-08-18T22:26:52.586Z,3.53
2022-08-18T22:29:26.671Z,3.40
2022-08-18T22:31:55.853Z,3.42
2022-08-18T22:34:27.911Z,3.95
2022-08-18T22:36:59.871Z,4.32
2022-08-18T22:39:30.836Z,3.92
2022-08-18T22:42:00.277Z,3.45
2022-08-18T22:44:29.384Z,3.45
2022-08-18T22:46:57.900Z,3.45
2022-08-18T22:49:26.358Z,3.08
2022-08-18T22:51:56.228Z,4.00
2022-08-18T22:54:25.430Z,3.38
2022-08-18T22:56:57.668Z,3.03
2022-08-18T22:59:27.069Z,3.10
2022-08-18T23:01:56.090Z,2.70
2022-08-18T23:04:25.558Z,3.33
2022-08-18T23:06:54.194Z,3.55
2022-08-18T23:09:23.871Z,3.78
2022-08-18T23:11:53.101Z,3.72
2022-08-18T23:14:23.467Z,3.33
2022-08-18T23:16:52.372Z,3.15
2022-08-18T23:19:22.014Z,3.35
2022-08-18T23:21:51.251Z,3.78
2022-08-18T23:24:20.236Z,3.63
2022-08-18T23:26:49.887Z,3.80
2022-08-18T23:29:18.863Z,3.50
2022-08-18T23:31:49.754Z,3.50
2022-08-18T23:34:19.363Z,3.47
2022-08-18T23:36:49.058Z,3.40
2022-08-18T23:39:17.539Z,3.65
2022-08-18T23:41:46.023Z,3.55
2022-08-18T23:44:15.036Z,3.03
2022-08-18T23:46:44.607Z,3.78
2022-08-18T23:49:15.065Z,3.25
2022-08-18T23:51:44.626Z,3.15
2022-08-18T23:54:14.271Z,3.08
2022-08-18T23:56:42.944Z,2.95
2022-08-18T23:59:13.093Z,2.83
